createdAt,value
2018-11-23T00:00:14.709Z,2.31
2018-11-23T00:01:14.724Z,2.20
2018-11-23T00:02:14.690Z,2.20
2018-11-23T00:03:14.676Z,2.20
2018-11-23T00:04:14.667Z,2.21
2018-11-23T00:05:14.654Z,2.27
2018-11-23T00:06:14.662Z,2.21
2018-11-23T00:07:14.643Z,2.25
2018-11-23T00:08:14.635Z,2.18
2018-11-23T00:09:14.617Z,2.20
2018-11-23T00:10:14.609Z,2.21
2018-11-23T00:11:14.637Z,2.16
2018-11-23T00:12:14.584Z,2.18
2018-11-23T00:13:14.592Z,2.18
2018-11-23T00:14:14.561Z,2.21
2018-11-23T00:15:14.566Z,2.17
2018-11-23T00:16:14.538Z,2.20
2018-11-23T00:17:14.554Z,2.16
2018-11-23T00:18:14.516Z,2.16
2018-11-23T00:19:14.505Z,2.06
2018-11-23T00:20:14.515Z,2.07
2018-11-23T00:21:14.489Z,2.09
2018-11-23T00:22:14.495Z,2.03
2018-11-23T00:23:14.471Z,2.07
2018-11-23T00:24:14.451Z,2.10
2018-11-23T00:25:14.440Z,2.12
2018-11-23T00:26:14.436Z,2.16
2018-11-23T00:27:14.439Z,2.05
2018-11-23T00:28:14.412Z,2.17
2018-11-23T00:29:14.413Z,2.06
2018-11-23T00:30:14.388Z,2.07
2018-11-23T00:31:14.376Z,2.12
2018-11-23T00:32:14.394Z,2.10
2018-11-23T00:33:14.359Z,2.12
2018-11-23T00:34:14.345Z,2.07
2018-11-23T00:35:14.344Z,2.03
2018-11-23T00:36:14.336Z,2.00
2018-11-23T00:37:14.338Z,2.10
2018-11-23T00:38:14.333Z,2.10
2018-11-23T00:39:14.297Z,2.05
2018-11-23T00:40:14.280Z,2.06
2018-11-23T00:41:14.273Z,2.03
2018-11-23T00:42:14.282Z,2.06
2018-11-23T00:43:14.264Z,2.06
2018-11-23T00:44:14.237Z,2.05
2018-11-23T00:45:14.234Z,2.05
2018-11-23T00:46:14.217Z,2.06
2018-11-23T00:47:14.228Z,2.03
2018-11-23T00:48:14.194Z,2.05
2018-11-23T00:49:14.185Z,2.03
2018-11-23T00:50:14.174Z,2.05
2018-11-23T00:51:14.180Z,2.05
2018-11-23T00:52:14.176Z,2.09
2018-11-23T00:53:14.145Z,2.05
2018-11-23T00:54:14.128Z,2.06
2018-11-23T00:55:14.119Z,1.99
2018-11-23T00:56:14.115Z,2.05
2018-11-23T00:57:14.121Z,2.10
2018-11-23T00:58:14.094Z,2.07
2018-11-23T00:59:14.079Z,2.03
2018-11-23T01:00:14.082Z,2.03
2018-11-23T01:01:14.056Z,2.05
2018-11-23T01:02:14.066Z,1.99
2018-11-23T01:03:14.041Z,2.06
2018-11-23T01:04:14.025Z,2.03
2018-11-23T01:05:14.018Z,1.98
2018-11-23T01:06:14.025Z,2.10
2018-11-23T01:07:14.014Z,2.02
2018-11-23T01:08:13.985Z,2.07
2018-11-23T01:09:13.974Z,2.02
2018-11-23T01:10:13.971Z,1.99
2018-11-23T01:11:13.965Z,1.95
2018-11-23T01:12:13.960Z,1.95
2018-11-23T01:13:13.929Z,2.00
2018-11-23T01:14:13.920Z,1.93
2018-11-23T01:15:13.916Z,1.93
2018-11-23T01:16:13.899Z,1.93
2018-11-23T01:17:13.911Z,1.95
2018-11-23T01:18:13.887Z,1.90
2018-11-23T01:19:13.865Z,1.87
2018-11-23T01:20:13.857Z,1.91
2018-11-23T01:21:13.847Z,1.99
2018-11-23T01:22:13.854Z,1.99
2018-11-23T01:23:13.827Z,1.88
2018-11-23T01:24:13.822Z,1.93
2018-11-23T01:25:13.804Z,1.99
2018-11-23T01:26:13.796Z,1.88
2018-11-23T01:27:13.795Z,1.90
2018-11-23T01:28:13.779Z,1.86
2018-11-23T01:29:13.765Z,1.86
2018-11-23T01:30:13.752Z,1.87
2018-11-23T01:31:13.741Z,1.90
2018-11-23T01:32:13.748Z,1.86
2018-11-23T01:33:13.728Z,1.87
2018-11-23T01:34:13.706Z,1.87
2018-11-23T01:35:13.714Z,1.83
2018-11-23T01:36:13.685Z,1.88
2018-11-23T01:37:13.676Z,1.86
2018-11-23T01:38:13.685Z,1.87
2018-11-23T01:39:13.655Z,1.76
2018-11-23T01:40:13.642Z,1.77
2018-11-23T01:41:13.647Z,1.93
2018-11-23T01:42:13.628Z,1.80
2018-11-23T01:43:13.632Z,1.84
2018-11-23T01:44:13.607Z,1.81
2018-11-23T01:45:13.600Z,1.80
2018-11-23T01:46:13.584Z,1.77
2018-11-23T01:47:13.579Z,1.76
2018-11-23T01:48:13.573Z,1.81
2018-11-23T01:49:13.562Z,1.70
2018-11-23T01:50:13.537Z,1.77
2018-11-23T01:51:13.526Z,1.90
2018-11-23T01:52:13.515Z,1.83
2018-11-23T01:53:13.523Z,1.80
2018-11-23T01:54:13.496Z,1.90
2018-11-23T01:55:13.482Z,1.76
2018-11-23T01:56:13.488Z,1.84
2018-11-23T01:57:13.465Z,1.81
2018-11-23T01:58:13.466Z,1.73
2018-11-23T01:59:13.441Z,1.81
2018-11-23T02:00:13.432Z,1.81
2018-11-23T02:01:13.418Z,1.81
2018-11-23T02:02:13.419Z,1.86
2018-11-23T02:03:13.419Z,1.76
2018-11-23T02:04:13.385Z,1.77
2018-11-23T02:05:13.385Z,1.80
2018-11-23T02:06:13.367Z,1.73
2018-11-23T02:07:13.354Z,1.73
2018-11-23T02:08:13.359Z,1.77
2018-11-23T02:09:13.335Z,1.70
2018-11-23T02:10:13.325Z,1.72
2018-11-23T02:11:13.323Z,1.79
2018-11-23T02:12:13.304Z,1.81
2018-11-23T02:13:13.314Z,1.79
2018-11-23T02:14:13.281Z,1.79
2018-11-23T02:15:13.268Z,1.81
2018-11-23T02:16:13.260Z,1.80
2018-11-23T02:17:13.257Z,1.83
2018-11-23T02:18:13.259Z,1.83
2018-11-23T02:19:13.229Z,1.80
2018-11-23T02:20:13.215Z,1.86
2018-11-23T02:21:13.206Z,1.73
2018-11-23T02:22:13.195Z,1.77
2018-11-23T02:23:13.201Z,1.77
2018-11-23T02:24:13.180Z,1.72
2018-11-23T02:25:13.168Z,1.73
2018-11-23T02:26:13.162Z,1.76
2018-11-23T02:27:13.145Z,1.72
2018-11-23T02:28:13.153Z,1.77
2018-11-23T02:29:13.119Z,1.73
2018-11-23T02:30:13.116Z,1.76
2018-11-23T02:31:13.097Z,1.65
2018-11-23T02:32:13.091Z,1.66
2018-11-23T02:33:13.094Z,1.73
2018-11-23T02:34:13.067Z,1.66
2018-11-23T02:35:13.055Z,1.62
2018-11-23T02:36:13.055Z,1.59
2018-11-23T02:37:13.035Z,1.65
2018-11-23T02:38:13.042Z,1.59
2018-11-23T02:39:13.019Z,1.59
2018-11-23T02:40:13.005Z,1.58
2018-11-23T02:41:12.994Z,1.68
2018-11-23T02:42:12.990Z,1.63
2018-11-23T02:43:12.997Z,1.65
2018-11-23T02:44:12.962Z,1.65
2018-11-23T02:45:12.952Z,1.66
2018-11-23T02:46:12.959Z,1.63
2018-11-23T02:47:12.927Z,1.62
2018-11-23T02:48:12.933Z,1.72
2018-11-23T02:49:12.906Z,1.65
2018-11-23T02:50:12.900Z,1.58
2018-11-23T02:51:12.886Z,1.60
2018-11-23T02:52:12.873Z,1.60
2018-11-23T02:53:12.900Z,1.55
2018-11-23T02:54:12.858Z,1.48
2018-11-23T02:55:12.842Z,1.45
2018-11-23T02:56:12.831Z,1.51
2018-11-23T02:57:12.833Z,1.52
2018-11-23T02:58:12.835Z,1.44
2018-11-23T02:59:12.802Z,1.37
2018-11-23T03:00:12.788Z,1.41
2018-11-23T03:01:12.781Z,1.37
2018-11-23T03:02:12.766Z,1.42
2018-11-23T03:03:12.772Z,1.41
2018-11-23T03:04:12.763Z,1.42
2018-11-23T03:05:12.750Z,1.44
2018-11-23T03:06:12.741Z,1.37
2018-11-23T03:07:12.711Z,1.41
2018-11-23T03:08:12.750Z,1.33
2018-11-23T03:09:12.691Z,1.37
2018-11-23T03:10:12.701Z,1.42
2018-11-23T03:11:12.672Z,1.45
2018-11-23T03:12:12.660Z,1.45
2018-11-23T03:13:12.649Z,1.48
2018-11-23T03:14:12.665Z,1.42
2018-11-23T03:15:12.633Z,1.47
2018-11-23T03:16:12.615Z,1.51
2018-11-23T03:17:12.615Z,1.42
2018-11-23T03:18:12.596Z,1.50
2018-11-23T03:19:12.611Z,1.47
2018-11-23T03:20:12.576Z,1.48
2018-11-23T03:21:12.571Z,1.45
2018-11-23T03:22:12.552Z,1.50
2018-11-23T03:23:12.545Z,1.42
2018-11-23T03:24:12.564Z,1.50
2018-11-23T03:25:12.521Z,1.50
2018-11-23T03:26:12.511Z,1.48
2018-11-23T03:27:12.498Z,1.54
2018-11-23T03:28:12.494Z,1.47
2018-11-23T03:29:12.533Z,1.48
2018-11-23T03:30:12.467Z,1.51
2018-11-23T03:31:12.713Z,1.47
2018-11-23T03:32:12.445Z,1.48
2018-11-23T03:33:12.439Z,1.45
2018-11-23T03:34:12.445Z,1.52
2018-11-23T03:35:12.428Z,1.52
2018-11-23T03:36:12.404Z,1.50
2018-11-23T03:37:12.393Z,1.52
2018-11-23T03:38:12.397Z,1.58
2018-11-23T03:39:12.389Z,1.47
2018-11-23T03:40:12.394Z,1.54
2018-11-23T03:41:12.350Z,1.51
2018-11-23T03:42:12.341Z,1.47
2018-11-23T03:43:12.340Z,1.52
2018-11-23T03:44:12.342Z,1.51
2018-11-23T03:45:12.310Z,1.48
2018-11-23T03:46:12.305Z,1.42
2018-11-23T03:47:12.289Z,1.45
2018-11-23T03:48:12.278Z,1.45
2018-11-23T03:49:12.299Z,1.45
2018-11-23T03:50:12.253Z,1.42
2018-11-23T03:51:12.244Z,1.36
2018-11-23T03:52:12.247Z,1.40
2018-11-23T03:53:12.223Z,1.42
2018-11-23T03:54:12.239Z,1.41
2018-11-23T03:55:12.202Z,1.37
2018-11-23T03:56:12.197Z,1.37
2018-11-23T03:57:12.185Z,1.48
2018-11-23T03:58:12.175Z,1.42
2018-11-23T03:59:12.186Z,1.45
2018-11-23T04:00:17.184Z,1.48
2018-11-23T04:01:13.143Z,1.47
2018-11-23T04:02:12.126Z,1.47
2018-11-23T04:03:12.119Z,1.44
2018-11-23T04:04:12.138Z,1.44
2018-11-23T04:05:12.098Z,1.45
2018-11-23T04:06:12.100Z,1.41
2018-11-23T04:07:12.078Z,1.50
2018-11-23T04:08:12.066Z,1.48
2018-11-23T04:09:12.086Z,1.54
2018-11-23T04:10:12.047Z,1.47
2018-11-23T04:11:12.037Z,1.54
2018-11-23T04:12:12.024Z,1.59
2018-11-23T04:13:12.011Z,1.58
2018-11-23T04:14:12.028Z,1.65
2018-11-23T04:15:11.990Z,1.58
2018-11-23T04:16:11.987Z,1.72
2018-11-23T04:17:11.968Z,1.72
2018-11-23T04:18:11.955Z,1.69
2018-11-23T04:19:11.972Z,1.65
2018-11-23T04:20:11.942Z,1.60
2018-11-23T04:21:11.927Z,1.63
2018-11-23T04:22:11.925Z,1.66
2018-11-23T04:23:11.907Z,1.62
2018-11-23T04:24:11.910Z,1.77
2018-11-23T04:25:11.879Z,1.73
2018-11-23T04:26:11.878Z,1.77
2018-11-23T04:27:11.860Z,1.84
2018-11-23T04:28:11.852Z,1.77
2018-11-23T04:29:11.871Z,1.79
2018-11-23T04:30:11.830Z,1.83
2018-11-23T04:31:11.818Z,1.70
2018-11-23T04:32:11.807Z,1.70
2018-11-23T04:33:11.794Z,1.90
2018-11-23T04:34:11.801Z,1.87
2018-11-23T04:35:11.787Z,1.83
2018-11-23T04:36:11.764Z,1.84
2018-11-23T04:37:11.764Z,1.81
2018-11-23T04:38:11.750Z,1.88
2018-11-23T04:39:11.758Z,1.87
2018-11-23T04:40:11.741Z,1.91
2018-11-23T04:41:11.716Z,1.87
2018-11-23T04:42:11.700Z,1.93
2018-11-23T04:43:11.698Z,1.93
2018-11-23T04:44:11.683Z,1.88
2018-11-23T04:45:11.685Z,1.95
2018-11-23T04:46:11.668Z,1.93
2018-11-23T04:47:11.653Z,2.05
2018-11-23T04:48:11.639Z,2.00
2018-11-23T04:49:11.639Z,2.07
2018-11-23T04:50:11.635Z,1.99
2018-11-23T04:51:11.605Z,2.00
2018-11-23T04:52:11.594Z,2.03
2018-11-23T04:53:11.589Z,2.06
2018-11-23T04:54:11.574Z,2.12
2018-11-23T04:55:11.578Z,2.09
2018-11-23T04:56:11.553Z,2.07
2018-11-23T04:57:11.548Z,2.18
2018-11-23T04:58:11.529Z,2.17
2018-11-23T04:59:11.521Z,2.27
2018-11-23T05:00:11.526Z,2.30
2018-11-23T05:01:11.496Z,2.21
2018-11-23T05:02:11.485Z,2.23
2018-11-23T05:03:11.475Z,2.20
2018-11-23T05:04:11.469Z,2.20
2018-11-23T05:05:11.485Z,2.23
2018-11-23T05:06:11.445Z,2.21
2018-11-23T05:07:11.433Z,2.25
2018-11-23T05:08:11.425Z,2.23
2018-11-23T05:09:11.413Z,2.23
2018-11-23T05:10:11.425Z,2.35
2018-11-23T05:11:11.394Z,2.27
2018-11-23T05:12:11.380Z,2.21
2018-11-23T05:13:11.370Z,2.21
2018-11-23T05:14:11.375Z,2.28
2018-11-23T05:15:11.369Z,2.28
2018-11-23T05:16:11.342Z,2.23
2018-11-23T05:17:11.341Z,2.34
2018-11-23T05:18:11.315Z,2.23
2018-11-23T05:19:11.309Z,2.34
2018-11-23T05:20:11.312Z,2.24
2018-11-23T05:21:11.281Z,2.28
2018-11-23T05:22:11.278Z,2.17
2018-11-23T05:23:11.269Z,2.20
2018-11-23T05:24:11.273Z,2.31
2018-11-23T05:25:11.256Z,2.21
2018-11-23T05:26:11.230Z,2.25
2018-11-23T05:27:11.230Z,2.14
2018-11-23T05:28:11.215Z,2.23
2018-11-23T05:29:11.204Z,2.16
2018-11-23T05:30:11.217Z,2.17
2018-11-23T05:31:11.176Z,2.20
2018-11-23T05:32:11.169Z,2.16
2018-11-23T05:33:11.163Z,2.14
2018-11-23T05:34:11.157Z,2.10
2018-11-23T05:35:11.151Z,2.06
2018-11-23T05:36:11.122Z,2.07
2018-11-23T05:37:11.119Z,2.16
2018-11-23T05:38:11.107Z,2.14
2018-11-23T05:39:11.095Z,2.09
2018-11-23T05:40:11.101Z,2.03
2018-11-23T05:41:11.085Z,2.06
2018-11-23T05:42:11.058Z,2.12
2018-11-23T05:43:11.053Z,2.05
2018-11-23T05:44:11.039Z,2.07
2018-11-23T05:45:11.093Z,2.07
2018-11-23T05:46:11.018Z,2.10
2018-11-23T05:47:11.014Z,2.05
2018-11-23T05:48:11.004Z,2.05
2018-11-23T05:49:11.007Z,1.99
2018-11-23T05:50:10.987Z,2.02
2018-11-23T05:51:10.968Z,2.10
2018-11-23T05:52:10.955Z,1.99
2018-11-23T05:53:10.940Z,1.98
2018-11-23T05:54:10.932Z,2.07
2018-11-23T05:55:10.946Z,1.95
2018-11-23T05:56:10.911Z,1.91
2018-11-23T05:57:10.923Z,1.95
2018-11-23T05:58:10.891Z,2.00
2018-11-23T05:59:10.878Z,2.02
2018-11-23T06:00:10.905Z,1.99
2018-11-23T06:01:10.856Z,1.98
2018-11-23T06:02:10.847Z,1.91
2018-11-23T06:03:10.836Z,1.95
2018-11-23T06:04:10.835Z,1.99
2018-11-23T06:05:10.835Z,1.91
2018-11-23T06:06:10.802Z,2.02
2018-11-23T06:07:10.799Z,1.99
2018-11-23T06:08:10.781Z,2.03
2018-11-23T06:09:10.776Z,2.10
2018-11-23T06:10:10.791Z,2.05
2018-11-23T06:11:10.751Z,2.07
2018-11-23T06:12:10.737Z,2.05
2018-11-23T06:13:10.733Z,2.03
2018-11-23T06:14:10.720Z,2.07
2018-11-23T06:15:10.708Z,2.00
2018-11-23T06:16:10.714Z,2.02
2018-11-23T06:17:10.718Z,1.99
2018-11-23T06:18:10.674Z,1.91
2018-11-23T06:19:10.684Z,1.91
2018-11-23T06:20:10.651Z,2.03
2018-11-23T06:21:10.656Z,2.03
2018-11-23T06:22:10.660Z,2.03
2018-11-23T06:23:10.617Z,2.02
2018-11-23T06:24:10.608Z,2.06
2018-11-23T06:25:10.597Z,2.02
2018-11-23T06:26:10.602Z,2.05
2018-11-23T06:27:10.598Z,2.07
2018-11-23T06:28:10.567Z,1.99
2018-11-23T06:29:10.553Z,2.02
2018-11-23T06:30:10.545Z,2.07
2018-11-23T06:31:10.548Z,1.93
2018-11-23T06:32:10.522Z,1.99
2018-11-23T06:33:10.521Z,1.99
2018-11-23T06:34:10.512Z,2.03
2018-11-23T06:35:10.491Z,2.02
2018-11-23T06:36:10.494Z,2.05
2018-11-23T06:37:10.470Z,1.93
2018-11-23T06:38:10.457Z,2.03
2018-11-23T06:39:10.456Z,2.03
2018-11-23T06:40:10.448Z,2.03
2018-11-23T06:41:10.767Z,2.03
2018-11-23T06:42:10.415Z,2.10
2018-11-23T06:43:10.404Z,2.07
2018-11-23T06:44:10.398Z,2.10
2018-11-23T06:45:10.384Z,2.12
2018-11-23T06:46:10.398Z,2.12
2018-11-23T06:47:10.387Z,2.06
2018-11-23T06:48:10.355Z,2.14
2018-11-23T06:49:10.341Z,2.10
2018-11-23T06:50:10.330Z,2.12
2018-11-23T06:51:10.335Z,2.05
2018-11-23T06:52:10.324Z,2.02
2018-11-23T06:53:10.301Z,2.06
2018-11-23T06:54:14.406Z,2.06
2018-11-23T06:55:10.280Z,1.99
2018-11-23T06:56:10.281Z,2.12
2018-11-23T06:57:10.256Z,2.06
2018-11-23T06:58:10.266Z,2.06
2018-11-23T06:59:10.233Z,2.06
2018-11-23T07:00:10.222Z,2.07
2018-11-23T07:01:10.230Z,2.06
2018-11-23T07:02:10.201Z,2.02
2018-11-23T07:03:10.192Z,2.06
2018-11-23T07:04:10.194Z,2.07
2018-11-23T07:05:10.169Z,2.07
2018-11-23T07:06:10.174Z,2.06
2018-11-23T07:07:10.147Z,2.12
2018-11-23T07:08:10.138Z,2.07
2018-11-23T07:09:10.126Z,2.07
2018-11-23T07:10:10.125Z,2.10
2018-11-23T07:11:10.136Z,2.07
2018-11-23T07:12:10.093Z,2.03
2018-11-23T07:13:10.083Z,2.06
2018-11-23T07:14:10.072Z,2.05
2018-11-23T07:15:10.063Z,2.03
2018-11-23T07:16:10.070Z,2.06
2018-11-23T07:17:10.090Z,2.06
2018-11-23T07:18:10.032Z,2.10
2018-11-23T07:19:10.019Z,2.07
2018-11-23T07:20:10.009Z,2.20
2018-11-23T07:21:09.998Z,2.12
2018-11-23T07:22:10.020Z,2.16
2018-11-23T07:23:09.977Z,2.09
2018-11-23T07:24:09.965Z,2.07
2018-11-23T07:25:09.954Z,2.03
2018-11-23T07:26:09.945Z,2.02
2018-11-23T07:27:09.952Z,2.07
2018-11-23T07:28:15.407Z,1.99
2018-11-23T07:29:10.912Z,2.14
2018-11-23T07:30:09.902Z,2.06
2018-11-23T07:31:09.891Z,2.03
2018-11-23T07:32:09.900Z,2.03
2018-11-23T07:33:09.871Z,2.10
2018-11-23T07:34:09.889Z,2.07
2018-11-23T07:35:09.854Z,2.23
2018-11-23T07:36:09.841Z,2.24
2018-11-23T07:37:09.844Z,2.16
2018-11-23T07:38:09.817Z,2.17
2018-11-23T07:39:09.812Z,2.21
2018-11-23T07:40:09.832Z,2.25
2018-11-23T07:41:09.793Z,2.21
2018-11-23T07:42:09.789Z,2.17
2018-11-23T07:43:09.763Z,2.25
2018-11-23T07:44:09.755Z,2.28
2018-11-23T07:45:09.744Z,2.25
2018-11-23T07:46:09.756Z,2.27
2018-11-23T07:47:09.749Z,2.28
2018-11-23T07:48:09.711Z,2.34
2018-11-23T07:49:09.704Z,2.31
2018-11-23T07:50:09.688Z,2.36
2018-11-23T07:51:09.679Z,2.36
2018-11-23T07:52:09.712Z,2.31
2018-11-23T07:53:09.660Z,2.46
2018-11-23T07:54:09.645Z,2.42
2018-11-23T07:55:09.638Z,2.43
2018-11-23T07:56:09.657Z,2.49
2018-11-23T07:57:09.634Z,2.59
2018-11-23T07:58:09.682Z,2.53
2018-11-23T07:59:09.595Z,2.54
2018-11-23T08:00:09.582Z,2.61
2018-11-23T08:01:09.570Z,2.66
2018-11-23T08:02:09.576Z,2.69
2018-11-23T08:03:09.552Z,2.72
2018-11-23T08:04:09.606Z,2.79
2018-11-23T08:05:09.534Z,2.92
2018-11-23T08:06:09.520Z,2.96
2018-11-23T08:07:09.521Z,2.99
2018-11-23T08:08:09.502Z,2.97
2018-11-23T08:09:09.490Z,3.13
2018-11-23T08:10:09.502Z,3.08
2018-11-23T08:11:09.472Z,3.08
2018-11-23T08:12:09.475Z,3.14
2018-11-23T08:13:09.446Z,3.21
2018-11-23T08:14:09.432Z,3.11
2018-11-23T08:15:09.441Z,3.23
2018-11-23T08:16:09.434Z,3.17
2018-11-23T08:17:09.431Z,3.35
2018-11-23T08:18:09.389Z,3.50
2018-11-23T08:19:09.381Z,3.39
2018-11-23T08:20:09.370Z,3.57
2018-11-23T08:21:09.358Z,3.57
2018-11-23T08:22:09.371Z,3.69
2018-11-23T08:23:09.367Z,3.84
2018-11-23T08:24:09.325Z,3.93
2018-11-23T08:25:09.316Z,4.05
2018-11-23T08:26:09.307Z,4.04
2018-11-23T08:27:09.298Z,4.14
2018-11-23T08:28:09.308Z,4.08
2018-11-23T08:29:09.291Z,4.12
2018-11-23T08:30:09.262Z,4.08
2018-11-23T08:31:09.251Z,3.96
2018-11-23T08:32:09.240Z,3.91
2018-11-23T08:33:09.247Z,3.91
2018-11-23T08:34:09.229Z,4.04
2018-11-23T08:35:09.256Z,4.14
2018-11-23T08:36:09.200Z,4.08
2018-11-23T08:37:09.191Z,4.12
2018-11-23T08:38:09.192Z,4.09
2018-11-23T08:39:09.175Z,4.05
2018-11-23T08:40:09.156Z,4.09
2018-11-23T08:41:09.193Z,4.02
2018-11-23T08:42:09.137Z,3.98
2018-11-23T08:43:09.140Z,4.06
2018-11-23T08:44:09.115Z,4.04
2018-11-23T08:45:09.113Z,4.16
2018-11-23T08:46:09.097Z,4.29
2018-11-23T08:47:09.083Z,4.42
2018-11-23T08:48:09.106Z,4.44
2018-11-23T08:49:09.063Z,4.65
2018-11-23T08:50:09.050Z,4.66
2018-11-23T08:51:09.040Z,4.52
2018-11-23T08:52:09.047Z,4.63
2018-11-23T08:53:09.034Z,4.80
2018-11-23T08:54:09.017Z,5.00
2018-11-23T08:55:09.018Z,5.20
2018-11-23T08:56:08.988Z,5.18
2018-11-23T08:57:08.981Z,5.30
2018-11-23T08:58:08.981Z,5.39
2018-11-23T08:59:08.955Z,5.40
2018-11-23T09:00:08.946Z,5.57
2018-11-23T09:01:08.952Z,5.85
2018-11-23T09:02:08.926Z,5.97
2018-11-23T09:03:08.932Z,6.04
2018-11-23T09:04:08.915Z,5.83
2018-11-23T09:05:08.891Z,5.75
2018-11-23T09:06:08.935Z,5.60
2018-11-23T09:07:08.890Z,5.82
2018-11-23T09:08:08.949Z,6.15
2018-11-23T09:09:08.870Z,6.40
2018-11-23T09:10:08.850Z,6.71
2018-11-23T09:11:08.828Z,6.89
2018-11-23T09:12:08.820Z,6.98
2018-11-23T09:13:08.868Z,7.15
2018-11-23T09:14:08.798Z,7.20
2018-11-23T09:15:08.792Z,7.17
2018-11-23T09:16:08.776Z,7.21
2018-11-23T09:17:08.767Z,7.37
2018-11-23T09:18:08.773Z,7.43
2018-11-23T09:19:08.787Z,7.42
2018-11-23T09:20:08.737Z,7.42
2018-11-23T09:21:08.728Z,7.60
2018-11-23T09:22:08.720Z,7.55
2018-11-23T09:23:08.728Z,7.57
2018-11-23T09:24:08.699Z,7.71
2018-11-23T09:25:08.720Z,7.71
2018-11-23T09:26:08.674Z,7.55
2018-11-23T09:27:08.664Z,7.67
2018-11-23T09:28:08.673Z,7.77
2018-11-23T09:29:08.646Z,7.83
2018-11-23T09:30:08.635Z,8.07
2018-11-23T09:31:08.644Z,8.19
2018-11-23T09:32:08.612Z,8.30
2018-11-23T09:33:08.621Z,8.37
2018-11-23T09:34:08.598Z,8.36
2018-11-23T09:35:08.584Z,8.37
2018-11-23T09:36:08.571Z,8.41
2018-11-23T09:37:08.578Z,8.40
2018-11-23T09:38:08.570Z,8.34
2018-11-23T09:39:08.543Z,8.22
2018-11-23T09:40:08.536Z,8.19
2018-11-23T09:41:08.520Z,8.04
2018-11-23T09:42:08.508Z,8.02
2018-11-23T09:43:08.535Z,8.08
2018-11-23T09:44:08.487Z,8.18
2018-11-23T09:45:08.476Z,8.23
2018-11-23T09:46:08.469Z,8.23
2018-11-23T09:47:10.231Z,8.25
2018-11-23T09:48:08.461Z,8.38
2018-11-23T09:49:08.465Z,8.38
2018-11-23T09:50:08.428Z,8.62
2018-11-23T09:51:08.415Z,8.63
2018-11-23T09:52:08.410Z,8.55
2018-11-23T09:53:08.409Z,8.58
2018-11-23T09:54:08.513Z,8.87
2018-11-23T09:55:08.369Z,8.86
2018-11-23T09:56:08.382Z,8.96
2018-11-23T09:57:08.349Z,8.89
2018-11-23T09:58:08.367Z,8.71
2018-11-23T09:59:08.333Z,8.70
2018-11-23T10:00:08.316Z,8.74
2018-11-23T10:02:08.305Z,8.50
2018-11-23T10:03:08.286Z,8.26
2018-11-23T10:04:08.289Z,8.43
2018-11-23T10:05:08.369Z,8.73
2018-11-23T10:06:08.254Z,8.91
2018-11-23T10:07:08.240Z,8.98
2018-11-23T10:08:08.269Z,9.14
2018-11-23T10:09:08.258Z,9.32
2018-11-23T10:10:08.231Z,9.50
2018-11-23T10:11:08.204Z,9.42
2018-11-23T10:12:08.188Z,9.50
2018-11-23T10:13:08.177Z,9.51
2018-11-23T10:14:08.218Z,9.56
2018-11-23T10:15:08.155Z,9.47
2018-11-23T10:16:08.159Z,9.54
2018-11-23T10:17:08.144Z,9.46
2018-11-23T10:18:08.123Z,9.33
2018-11-23T10:19:08.130Z,9.35
2018-11-23T10:20:08.142Z,9.39
2018-11-23T10:21:08.091Z,9.39
2018-11-23T10:22:08.079Z,9.47
2018-11-23T10:23:08.069Z,9.39
2018-11-23T10:24:08.073Z,9.50
2018-11-23T10:25:08.046Z,9.61
2018-11-23T10:26:08.058Z,9.47
2018-11-23T10:27:08.030Z,9.36
2018-11-23T10:28:08.013Z,9.38
2018-11-23T10:29:08.021Z,9.46
2018-11-23T10:30:07.990Z,9.57
2018-11-23T10:31:07.978Z,9.46
2018-11-23T10:32:07.975Z,9.43
2018-11-23T10:33:07.958Z,9.64
2018-11-23T10:34:07.965Z,9.68
2018-11-23T10:35:07.935Z,9.65
2018-11-23T10:36:07.925Z,9.66
2018-11-23T10:37:07.915Z,9.68
2018-11-23T10:38:07.912Z,9.68
2018-11-23T10:39:07.903Z,9.81
2018-11-23T10:40:07.923Z,9.78
2018-11-23T10:41:07.872Z,9.75
2018-11-23T10:42:07.855Z,9.91
2018-11-23T10:43:07.847Z,9.96
2018-11-23T10:44:07.869Z,10.18
2018-11-23T10:45:07.827Z,10.27
2018-11-23T10:46:07.813Z,10.32
2018-11-23T10:47:07.799Z,10.42
2018-11-23T10:48:07.789Z,10.56
2018-11-23T10:49:07.792Z,10.61
2018-11-23T10:50:07.783Z,10.53
2018-11-23T10:51:07.754Z,10.91
2018-11-23T10:52:07.744Z,11.03
2018-11-23T10:53:07.733Z,11.36
2018-11-23T10:54:07.737Z,11.61
2018-11-23T10:55:07.711Z,11.91
2018-11-23T10:56:07.704Z,12.05
2018-11-23T10:57:07.690Z,11.96
2018-11-23T10:58:07.681Z,11.70
2018-11-23T10:59:07.685Z,11.51
2018-11-23T11:00:07.658Z,11.37
2018-11-23T11:01:07.644Z,11.35
2018-11-23T11:02:07.650Z,11.39
2018-11-23T11:03:07.624Z,11.32
2018-11-23T11:04:07.629Z,11.02
2018-11-23T11:05:07.605Z,10.86
2018-11-23T11:06:07.592Z,10.79
2018-11-23T11:07:07.585Z,10.71
2018-11-23T11:08:07.590Z,10.89
2018-11-23T11:09:07.577Z,10.88
2018-11-23T11:10:07.550Z,11.15
2018-11-23T11:11:08.130Z,11.28
2018-11-23T11:12:07.526Z,11.24
2018-11-23T11:13:07.521Z,10.92
2018-11-23T11:14:07.540Z,10.89
2018-11-23T11:15:07.495Z,10.82
2018-11-23T11:16:07.487Z,10.67
2018-11-23T11:17:07.471Z,10.33
2018-11-23T11:18:07.461Z,10.01
2018-11-23T11:19:07.485Z,9.91
2018-11-23T11:20:07.458Z,9.75
2018-11-23T11:21:07.431Z,9.69
2018-11-23T11:22:07.417Z,9.58
2018-11-23T11:23:07.406Z,9.56
2018-11-23T11:24:07.396Z,9.48
2018-11-23T11:25:07.406Z,9.43
2018-11-23T11:26:07.402Z,9.43
2018-11-23T11:27:07.361Z,9.58
2018-11-23T11:28:07.359Z,9.68
2018-11-23T11:29:07.342Z,9.69
2018-11-23T11:30:07.349Z,9.75
2018-11-23T11:31:07.323Z,9.83
2018-11-23T11:32:07.311Z,9.94
2018-11-23T11:33:07.308Z,9.93
2018-11-23T11:34:07.283Z,9.94
2018-11-23T11:35:07.289Z,10.02
2018-11-23T11:36:07.261Z,10.26
2018-11-23T11:37:07.250Z,10.33
2018-11-23T11:38:07.238Z,10.51
2018-11-23T11:39:07.246Z,10.55
2018-11-23T11:40:07.231Z,10.84
2018-11-23T11:41:07.203Z,11.17
2018-11-23T11:42:07.193Z,11.47
2018-11-23T11:43:07.182Z,11.83
2018-11-23T11:44:07.172Z,12.16
2018-11-23T11:45:07.950Z,12.39
2018-11-23T11:46:07.148Z,12.27
2018-11-23T11:47:07.137Z,12.28
2018-11-23T11:48:07.161Z,12.60
2018-11-23T11:49:07.117Z,12.54
2018-11-23T11:50:07.108Z,12.31
2018-11-23T11:51:07.152Z,12.05
2018-11-23T11:52:07.083Z,11.83
2018-11-23T11:53:07.071Z,11.83
2018-11-23T11:54:07.063Z,11.72
2018-11-23T11:55:07.054Z,11.64
2018-11-23T11:56:07.063Z,11.55
2018-11-23T11:57:07.073Z,11.19
2018-11-23T11:58:07.034Z,10.84
2018-11-23T11:59:07.004Z,10.78
2018-11-23T12:00:06.997Z,10.66
2018-11-23T12:01:07.000Z,10.48
2018-11-23T12:02:10.294Z,10.38
2018-11-23T12:03:06.975Z,10.12
2018-11-23T12:04:06.965Z,10.17
2018-11-23T12:05:06.937Z,9.97
2018-11-23T12:06:06.968Z,10.04
2018-11-23T12:07:06.916Z,9.96
2018-11-23T12:08:06.904Z,9.81
2018-11-23T12:09:06.947Z,9.86
2018-11-23T12:10:06.907Z,9.79
2018-11-23T12:11:06.890Z,9.64
2018-11-23T12:12:06.861Z,9.54
2018-11-23T12:13:06.849Z,9.56
2018-11-23T12:14:06.857Z,9.53
2018-11-23T12:15:06.881Z,9.60
2018-11-23T12:16:06.854Z,9.56
2018-11-23T12:17:06.813Z,9.50
2018-11-23T12:18:06.795Z,9.68
2018-11-23T12:19:08.114Z,9.68
2018-11-23T12:20:06.791Z,9.69
2018-11-23T12:21:06.817Z,9.79
2018-11-23T12:22:06.760Z,9.76
2018-11-23T12:23:06.779Z,9.68
2018-11-23T12:24:06.731Z,9.68
2018-11-23T12:25:06.719Z,9.57
2018-11-23T12:26:06.728Z,9.50
2018-11-23T12:27:06.715Z,9.42
2018-11-23T12:28:06.690Z,9.43
2018-11-23T12:29:06.684Z,9.26
2018-11-23T12:30:06.667Z,9.38
2018-11-23T12:31:06.670Z,9.42
2018-11-23T12:32:06.649Z,9.42
2018-11-23T12:33:06.632Z,9.42
2018-11-23T12:34:06.638Z,9.39
2018-11-23T12:35:06.640Z,9.42
2018-11-23T12:36:06.617Z,9.54
2018-11-23T12:37:06.589Z,9.48
2018-11-23T12:38:06.578Z,9.56
2018-11-23T12:39:06.575Z,9.53
2018-11-23T12:40:06.601Z,9.60
2018-11-23T12:41:06.591Z,9.46
2018-11-23T12:42:06.537Z,9.50
2018-11-23T12:43:06.527Z,9.58
2018-11-23T12:44:06.513Z,9.53
2018-11-23T12:45:06.503Z,9.54
2018-11-23T12:46:06.525Z,9.56
2018-11-23T12:47:06.482Z,9.57
2018-11-23T12:48:06.475Z,9.51
2018-11-23T12:49:06.484Z,9.53
2018-11-23T12:50:06.448Z,9.53
2018-11-23T12:51:06.439Z,9.54
2018-11-23T12:52:06.458Z,9.54
2018-11-23T12:53:06.662Z,9.53
2018-11-23T12:54:06.416Z,9.54
2018-11-23T12:55:06.404Z,9.53
2018-11-23T12:56:06.386Z,9.57
2018-11-23T12:57:06.392Z,9.54
2018-11-23T12:58:06.421Z,9.51
2018-11-23T12:59:06.353Z,9.53
2018-11-23T13:00:06.342Z,9.57
2018-11-23T13:01:06.329Z,9.51
2018-11-23T13:02:06.339Z,9.58
2018-11-23T13:03:06.321Z,9.57
2018-11-23T13:04:06.308Z,9.53
2018-11-23T13:05:06.289Z,9.68
2018-11-23T13:06:06.277Z,9.68
2018-11-23T13:07:06.280Z,9.75
2018-11-23T13:08:06.256Z,9.68
2018-11-23T13:09:06.262Z,9.72
2018-11-23T13:10:06.246Z,9.60
2018-11-23T13:11:06.222Z,9.65
2018-11-23T13:12:06.233Z,9.66
2018-11-23T13:13:06.201Z,9.68
2018-11-23T13:14:06.200Z,9.66
2018-11-23T13:15:06.230Z,9.65
2018-11-23T13:16:06.176Z,9.65
2018-11-23T13:17:06.193Z,9.66